Time;durP1;ratioP1;P1;durP2;ratioP2;P2;SDS_P1;SDS_P2;PMS_P1;PMS_P2;Temp;Humidity;BMP_temperature;BMP_pressure;BME280_temperature;BME280_humidity;BME280_pressure;Samples;Min_cycle;Max_cycle;Signal;HPM_P1;HPM_P2
2023/06/05 00:02:07;;;;;;;7.57;4.88;;;12.60;99.90;;;;;;4915617;28;20049;-74
2023/06/05 00:04:35;;;;;;;6.53;4.75;;;12.60;99.90;;;;;;4909938;28;20048;-74
2023/06/05 00:07:02;;;;;;;5.55;4.80;;;12.60;99.90;;;;;;4898106;29;20146;-77
2023/06/05 00:09:27;;;;;;;9.27;4.93;;;12.60;99.90;;;;;;4917301;28;20246;-79
2023/06/05 00:11:53;;;;;;;6.88;4.47;;;12.60;99.90;;;;;;4905608;28;20649;-76
2023/06/05 00:14:19;;;;;;;6.85;4.90;;;12.70;99.90;;;;;;4913852;28;20389;-75
2023/06/05 00:16:45;;;;;;;4.63;3.67;;;12.70;99.90;;;;;;4924693;28;20048;-75
2023/06/05 00:19:11;;;;;;;4.63;4.07;;;12.60;99.90;;;;;;4910224;28;20055;-75
2023/06/05 00:21:36;;;;;;;5.30;4.22;;;12.60;99.90;;;;;;4911666;29;20494;-75
2023/06/05 00:24:02;;;;;;;5.40;4.35;;;12.70;99.90;;;;;;4925983;28;20044;-73
2023/06/05 00:26:28;;;;;;;5.00;4.03;;;12.60;99.90;;;;;;4923617;28;20419;-76
2023/06/05 00:28:54;;;;;;;6.78;4.20;;;12.70;99.90;;;;;;4902316;28;20040;-75
2023/06/05 00:31:21;;;;;;;6.38;4.00;;;12.70;99.90;;;;;;4912196;28;20054;-75
2023/06/05 00:33:51;;;;;;;7.13;4.95;;;12.60;99.90;;;;;;4912372;28;20122;-78
2023/06/05 00:36:18;;;;;;;4.68;4.15;;;12.70;99.90;;;;;;4927588;28;20182;-75
2023/06/05 00:38:45;;;;;;;7.93;4.95;;;12.60;99.90;;;;;;4926785;28;20051;-77
2023/06/05 00:41:11;;;;;;;5.97;4.28;;;12.70;99.90;;;;;;4929709;28;20399;-77
2023/06/05 00:43:37;;;;;;;6.15;4.47;;;12.60;99.90;;;;;;4917494;28;20047;-74
2023/06/05 00:46:03;;;;;;;7.18;4.50;;;12.60;99.90;;;;;;4903722;28;20062;-76
2023/06/05 00:48:31;;;;;;;6.97;5.00;;;12.60;99.90;;;;;;4911258;28;20488;-78
2023/06/05 00:50:57;;;;;;;5.35;4.30;;;12.60;99.90;;;;;;4903119;28;20036;-74
2023/06/05 00:53:25;;;;;;;5.68;4.80;;;12.50;99.90;;;;;;4913766;28;20126;-76
2023/06/05 00:55:51;;;;;;;7.53;4.28;;;12.50;99.90;;;;;;4919757;28;20507;-75
2023/06/05 00:58:17;;;;;;;5.63;4.75;;;12.50;99.90;;;;;;4961746;28;20057;-75
2023/06/05 01:00:43;;;;;;;6.75;4.28;;;12.40;99.90;;;;;;4909696;28;20129;-78
2023/06/05 01:03:11;;;;;;;9.32;4.82;;;12.50;99.90;;;;;;4917246;28;20043;-79
2023/06/05 01:05:37;;;;;;;6.05;4.78;;;12.40;99.90;;;;;;4913678;28;20061;-75
2023/06/05 01:08:04;;;;;;;7.95;5.05;;;12.40;99.90;;;;;;4937223;28;20031;-78
2023/06/05 01:10:31;;;;;;;8.32;4.88;;;12.40;99.90;;;;;;4906478;28;20693;-77
2023/06/05 01:13:00;;;;;;;5.88;5.00;;;12.50;99.90;;;;;;4908124;28;20369;-77
2023/06/05 01:15:28;;;;;;;8.40;5.75;;;12.50;99.90;;;;;;4940401;28;20046;-77
2023/06/05 01:17:56;;;;;;;7.93;5.43;;;12.50;99.90;;;;;;4926076;29;20056;-77
2023/06/05 01:20:22;;;;;;;8.35;5.38;;;12.50;99.90;;;;;;4933272;28;20358;-76
2023/06/05 01:22:52;;;;;;;6.85;5.18;;;12.60;99.90;;;;;;4942026;28;20042;-75
2023/06/05 01:25:18;;;;;;;6.13;5.15;;;12.60;99.90;;;;;;4936843;28;20047;-74
2023/06/05 01:27:44;;;;;;;7.68;5.50;;;12.50;99.90;;;;;;4924946;28;20040;-76
2023/06/05 01:31:00;;;;;;;6.30;5.00;;;12.60;99.90;;;;;;4936327;28;20038;-76
2023/06/05 01:33:56;;;;;;;7.30;5.07;;;12.50;99.90;;;;;;4904200;28;20118;-74
2023/06/05 01:36:23;;;;;;;9.02;5.32;;;12.50;99.90;;;;;;4923412;29;20043;-75
2023/06/05 01:38:51;;;;;;;7.28;5.70;;;12.50;99.90;;;;;;4903100;28;20123;-77
2023/06/05 01:41:17;;;;;;;9.05;6.07;;;12.60;99.90;;;;;;4929918;28;20464;-77
2023/06/05 01:43:47;;;;;;;8.50;5.88;;;12.50;99.90;;;;;;4911207;28;20047;-77
2023/06/05 01:46:13;;;;;;;9.55;6.03;;;12.60;99.90;;;;;;4922884;28;20126;-78
2023/06/05 01:48:39;;;;;;;9.23;6.45;;;12.50;99.90;;;;;;4902712;28;20134;-76
2023/06/05 01:51:05;;;;;;;9.27;5.93;;;12.60;99.90;;;;;;4926135;28;20044;-75
2023/06/05 01:53:31;;;;;;;9.57;6.28;;;12.50;99.90;;;;;;4936187;28;20077;-79
2023/06/05 01:55:59;;;;;;;6.00;4.97;;;12.60;99.90;;;;;;4907288;28;20044;-76
2023/06/05 01:58:26;;;;;;;7.10;4.97;;;12.50;99.90;;;;;;4928510;28;20052;-78
2023/06/05 02:00:53;;;;;;;6.90;4.78;;;12.50;99.90;;;;;;4956726;28;20034;-75
2023/06/05 02:03:21;;;;;;;7.70;4.80;;;12.50;99.90;;;;;;4900330;28;20036;-76
2023/06/05 02:05:47;;;;;;;5.15;4.32;;;12.50;99.90;;;;;;4927192;28;20113;-76
2023/06/05 02:08:17;;;;;;;6.07;4.28;;;12.50;99.90;;;;;;4916879;28;20515;-73
2023/06/05 02:10:43;;;;;;;4.80;4.13;;;12.50;99.90;;;;;;4938332;28;20078;-79
2023/06/05 02:13:10;;;;;;;6.13;4.13;;;12.50;99.90;;;;;;4933694;28;20085;-79
2023/06/05 02:15:37;;;;;;;4.47;3.58;;;12.50;99.90;;;;;;4926007;28;20047;-75
2023/06/05 02:18:04;;;;;;;5.38;3.67;;;12.50;99.90;;;;;;4926825;28;20063;-74
2023/06/05 02:20:30;;;;;;;4.57;3.70;;;12.50;99.90;;;;;;4924406;28;20074;-76
2023/06/05 02:22:56;;;;;;;5.07;3.80;;;12.60;99.90;;;;;;4914030;28;20154;-79
2023/06/05 02:25:25;;;;;;;8.32;4.63;;;12.50;99.90;;;;;;4909550;28;20036;-78
2023/06/05 02:27:52;;;;;;;4.20;3.70;;;12.50;99.90;;;;;;4902379;28;20365;-78
2023/06/05 02:30:18;;;;;;;5.88;3.85;;;12.50;99.90;;;;;;4949655;28;20128;-77
2023/06/05 02:32:43;;;;;;;4.03;3.63;;;12.50;99.90;;;;;;4940338;28;20044;-76
2023/06/05 02:35:10;;;;;;;4.53;4.07;;;12.50;99.90;;;;;;4911843;28;20051;-77
2023/06/05 02:37:43;;;;;;;7.88;4.60;;;12.40;99.90;;;;;;4928421;29;20044;-76
2023/06/05 02:40:10;;;;;;;5.05;3.83;;;12.40;99.90;;;;;;4922912;29;20126;-77
2023/06/05 02:42:36;;;;;;;4.03;3.35;;;12.50;99.90;;;;;;4930272;28;20435;-74
2023/06/05 02:45:03;;;;;;;4.60;4.13;;;12.50;99.90;;;;;;4914081;28;20051;-74
2023/06/05 02:47:29;;;;;;;4.63;4.13;;;12.40;99.90;;;;;;4909575;28;20780;-79
2023/06/05 02:49:57;;;;;;;5.75;4.43;;;12.50;99.90;;;;;;4929980;28;20043;-76
2023/06/05 02:52:22;;;;;;;4.20;3.80;;;12.50;99.90;;;;;;4905766;29;20044;-77
2023/06/05 02:54:48;;;;;;;4.30;3.90;;;12.50;99.90;;;;;;4991062;28;20068;-78
2023/06/05 02:57:15;;;;;;;5.63;3.90;;;12.50;99.90;;;;;;4929253;28;20044;-80
2023/06/05 02:59:41;;;;;;;5.93;4.07;;;12.60;99.90;;;;;;4929784;28;20095;-76
2023/06/05 03:02:07;;;;;;;5.03;4.05;;;12.60;99.90;;;;;;4940754;28;20078;-75
2023/06/05 03:04:33;;;;;;;4.70;4.10;;;12.50;99.90;;;;;;4929386;28;20411;-75
2023/06/05 03:07:03;;;;;;;5.97;3.78;;;12.60;99.90;;;;;;4929327;28;20072;-81
2023/06/05 03:09:32;;;;;;;4.65;4.03;;;12.60;99.90;;;;;;4913140;28;20768;-76
2023/06/05 03:11:58;;;;;;;6.47;4.47;;;12.60;99.90;;;;;;4927434;28;20050;-79
2023/06/05 03:14:26;;;;;;;6.60;4.15;;;12.60;99.90;;;;;;4911711;29;20043;-76
2023/06/05 03:16:53;;;;;;;4.72;3.47;;;12.50;99.90;;;;;;4911556;28;20492;-77
2023/06/05 03:19:19;;;;;;;4.85;4.25;;;12.50;99.90;;;;;;4929729;28;20043;-79
2023/06/05 03:21:47;;;;;;;6.10;4.07;;;12.50;99.90;;;;;;4928206;28;20515;-76
2023/06/05 03:24:16;;;;;;;5.35;4.15;;;12.50;99.90;;;;;;4907445;28;20047;-76
2023/06/05 03:26:43;;;;;;;4.70;4.15;;;12.50;99.90;;;;;;4911616;29;20060;-75
2023/06/05 03:29:10;;;;;;;5.85;4.10;;;12.50;99.90;;;;;;4942139;28;20365;-73
2023/06/05 03:31:36;;;;;;;4.43;3.85;;;12.50;99.90;;;;;;4933662;28;20052;-78
2023/06/05 03:34:02;;;;;;;4.30;3.90;;;12.50;99.90;;;;;;4911880;28;20388;-76
2023/06/05 03:36:29;;;;;;;5.60;3.63;;;12.50;99.90;;;;;;4910621;28;20055;-75
2023/06/05 03:38:56;;;;;;;4.25;3.50;;;12.40;99.90;;;;;;4926288;29;20039;-75
2023/06/05 03:41:23;;;;;;;4.15;3.65;;;12.40;99.90;;;;;;4910008;29;20044;-76
2023/06/05 03:43:52;;;;;;;4.60;3.47;;;12.50;99.90;;;;;;4953711;28;20178;-80
2023/06/05 03:46:18;;;;;;;3.70;3.30;;;12.50;99.90;;;;;;4931377;28;20039;-78
2023/06/05 03:48:56;;;;;;;4.30;3.40;;;12.50;99.90;;;;;;4911131;28;20082;-76
2023/06/05 03:51:21;;;;;;;4.45;3.13;;;12.50;99.90;;;;;;4912567;28;20039;-75
2023/06/05 03:53:54;;;;;;;4.70;3.35;;;12.50;99.90;;;;;;4894463;28;20051;-75
2023/06/05 03:56:21;;;;;;;5.35;3.28;;;12.50;99.90;;;;;;4908594;28;20044;-76
2023/06/05 03:58:48;;;;;;;5.35;3.17;;;12.50;99.90;;;;;;4923915;28;20071;-76
2023/06/05 04:01:14;;;;;;;5.63;3.33;;;12.60;99.90;;;;;;4910610;28;20455;-76
2023/06/05 04:03:40;;;;;;;5.18;3.88;;;12.60;99.90;;;;;;4943452;28;20046;-77
2023/06/05 04:06:06;;;;;;;5.13;3.67;;;12.70;99.90;;;;;;4925465;28;20051;-74
2023/06/05 04:08:32;;;;;;;5.28;3.40;;;12.70;99.90;;;;;;4909506;28;20048;-76
2023/06/05 04:10:57;;;;;;;4.90;3.80;;;12.70;99.90;;;;;;4920532;28;20055;-75
2023/06/05 04:13:23;;;;;;;4.13;3.20;;;12.70;99.90;;;;;;4922976;28;20045;-72
2023/06/05 04:15:49;;;;;;;5.22;4.00;;;12.80;99.90;;;;;;4927335;28;20049;-76
2023/06/05 04:18:15;;;;;;;4.90;3.85;;;12.80;99.90;;;;;;4917199;28;20031;-75
2023/06/05 04:20:41;;;;;;;4.47;3.88;;;12.80;99.90;;;;;;4911832;29;20052;-80
2023/06/05 04:23:07;;;;;;;5.25;3.60;;;12.80;99.90;;;;;;4910621;29;20051;-77
2023/06/05 04:25:32;;;;;;;5.97;3.80;;;12.90;99.90;;;;;;4927479;28;20103;-79
2023/06/05 04:27:59;;;;;;;6.25;3.72;;;13.00;99.90;;;;;;4918493;28;20134;-79
2023/06/05 04:30:25;;;;;;;4.45;3.75;;;12.90;99.90;;;;;;4905670;28;20396;-78
2023/06/05 04:32:56;;;;;;;8.45;4.10;;;13.00;99.90;;;;;;4915262;28;20035;-78
2023/06/05 04:35:23;;;;;;;4.00;3.60;;;12.90;99.90;;;;;;4942556;28;20035;-76
2023/06/05 04:37:50;;;;;;;4.38;3.58;;;13.10;99.90;;;;;;4915298;28;20488;-79
2023/06/05 04:40:18;;;;;;;6.40;4.13;;;13.00;99.90;;;;;;4906363;28;20587;-77
2023/06/05 04:42:43;;;;;;;4.72;3.90;;;13.10;99.90;;;;;;4911548;29;21133;-79
2023/06/05 04:45:10;;;;;;;6.10;3.88;;;13.20;99.90;;;;;;4896895;28;20154;-81
2023/06/05 04:47:35;;;;;;;5.35;3.80;;;13.30;99.90;;;;;;4891993;29;20035;-79
2023/06/05 04:50:03;;;;;;;4.72;3.63;;;13.30;99.90;;;;;;4924554;28;20945;-79
2023/06/05 04:52:30;;;;;;;6.32;3.83;;;13.40;99.90;;;;;;4904087;29;20067;-77
2023/06/05 04:54:57;;;;;;;6.25;4.55;;;13.50;99.90;;;;;;4922515;28;20056;-81
2023/06/05 04:57:25;;;;;;;6.20;4.07;;;13.60;99.90;;;;;;4909847;28;20047;-75
2023/06/05 04:59:52;;;;;;;6.00;3.28;;;13.70;99.90;;;;;;4936097;28;20040;-77
2023/06/05 05:02:17;;;;;;;4.93;3.85;;;13.70;99.90;;;;;;4917543;28;20040;-80
2023/06/05 05:04:43;;;;;;;7.82;3.70;;;13.70;99.90;;;;;;4926812;28;20071;-79
2023/06/05 05:07:14;;;;;;;4.10;3.20;;;13.70;99.90;;;;;;4892896;28;20040;-75
2023/06/05 05:09:40;;;;;;;5.35;3.22;;;13.80;99.90;;;;;;4895313;28;20036;-75
2023/06/05 05:12:07;;;;;;;3.45;3.15;;;13.70;99.90;;;;;;4927890;28;20043;-76
2023/06/05 05:14:33;;;;;;;3.88;3.30;;;13.90;99.90;;;;;;4896069;28;20040;-75
2023/06/05 05:17:01;;;;;;;4.20;3.30;;;14.00;99.90;;;;;;4933158;28;20054;-77
2023/06/05 05:19:27;;;;;;;3.47;3.17;;;14.00;99.90;;;;;;4908679;29;20054;-77
2023/06/05 05:21:52;;;;;;;6.22;3.40;;;13.90;99.90;;;;;;4894493;28;20048;-74
2023/06/05 05:24:18;;;;;;;3.45;2.92;;;14.00;99.90;;;;;;4910372;29;20040;-81
2023/06/05 05:26:44;;;;;;;3.42;3.00;;;14.10;99.90;;;;;;4938387;28;20040;-80
2023/06/05 05:29:10;;;;;;;4.32;3.20;;;14.00;99.90;;;;;;4961168;28;20388;-74
2023/06/05 05:31:36;;;;;;;2.90;2.60;;;14.10;99.90;;;;;;4924062;28;20094;-78
2023/06/05 05:34:01;;;;;;;6.25;2.72;;;14.20;99.90;;;;;;4906137;28;20040;-80
2023/06/05 05:36:27;;;;;;;3.47;3.08;;;14.20;99.90;;;;;;4905297;28;20047;-82
2023/06/05 05:38:54;;;;;;;4.07;3.05;;;14.10;99.90;;;;;;4914666;28;20055;-78
2023/06/05 05:41:20;;;;;;;4.55;2.80;;;14.10;99.90;;;;;;4920512;28;20044;-80
2023/06/05 05:43:46;;;;;;;3.67;3.00;;;14.10;99.90;;;;;;4905982;29;20040;-78
2023/06/05 05:46:12;;;;;;;3.22;2.90;;;14.20;99.90;;;;;;4925549;28;20066;-80
2023/06/05 05:48:38;;;;;;;4.20;3.25;;;14.20;99.90;;;;;;4906144;29;20043;-77
2023/06/05 05:51:07;;;;;;;3.97;2.92;;;14.10;99.90;;;;;;4891842;29;20619;-77
2023/06/05 05:53:33;;;;;;;6.22;3.20;;;14.30;99.90;;;;;;4924909;28;20492;-79
2023/06/05 05:56:00;;;;;;;3.65;2.85;;;14.40;99.90;;;;;;4894328;29;20186;-75
2023/06/05 05:58:26;;;;;;;3.25;2.90;;;14.50;99.90;;;;;;4932493;28;20046;-78
2023/06/05 06:00:52;;;;;;;6.20;2.67;;;14.50;99.90;;;;;;4929748;28;20036;-76
2023/06/05 06:03:19;;;;;;;3.85;3.00;;;14.70;99.90;;;;;;4893724;28;20738;-77
2023/06/05 06:05:44;;;;;;;2.80;2.50;;;14.70;99.90;;;;;;4874010;28;20098;-75
2023/06/05 06:08:11;;;;;;;3.67;2.78;;;14.90;99.90;;;;;;4892026;29;20071;-76
2023/06/05 06:10:36;;;;;;;5.45;2.55;;;15.00;99.90;;;;;;4922056;28;20111;-74
2023/06/05 06:13:04;;;;;;;2.75;2.00;;;15.00;99.90;;;;;;4893744;28;20040;-76
2023/06/05 06:15:30;;;;;;;3.22;2.45;;;15.10;99.90;;;;;;4920345;28;20055;-77
2023/06/05 06:17:56;;;;;;;2.80;2.50;;;15.10;99.90;;;;;;4909368;29;20408;-78
2023/06/05 06:20:23;;;;;;;2.60;2.38;;;15.20;99.90;;;;;;4891357;29;20502;-78
2023/06/05 06:22:57;;;;;;;3.33;2.60;;;15.20;99.90;;;;;;4925980;28;20077;-76
2023/06/05 06:25:25;;;;;;;;;;;14.80;99.90;;;;;;4923899;28;20044;-78
2023/06/05 06:27:53;;;;;;;2.55;2.17;;;15.00;99.90;;;;;;4910985;28;20599;-78
2023/06/05 06:30:19;;;;;;;5.55;2.60;;;14.90;99.90;;;;;;4914933;28;20048;-79
2023/06/05 06:32:45;;;;;;;2.65;2.10;;;15.20;99.90;;;;;;4906832;28;20040;-78
2023/06/05 06:35:13;;;;;;;3.40;2.45;;;15.30;99.90;;;;;;4935631;28;20046;-75
2023/06/05 06:37:40;;;;;;;2.83;2.50;;;15.40;99.90;;;;;;4925972;29;20058;-74
2023/06/05 06:40:09;;;;;;;3.45;2.72;;;15.30;99.90;;;;;;4890555;29;20063;-76
2023/06/05 06:42:35;;;;;;;3.13;2.45;;;15.30;99.90;;;;;;4907400;28;20051;-77
2023/06/05 06:45:01;;;;;;;2.65;2.40;;;15.30;99.90;;;;;;4897737;28;20098;-77
2023/06/05 06:47:27;;;;;;;2.60;2.38;;;15.20;99.90;;;;;;4889798;29;20052;-78
2023/06/05 06:49:53;;;;;;;2.88;2.25;;;15.00;99.90;;;;;;4904443;28;20040;-78
2023/06/05 06:52:20;;;;;;;2.33;2.10;;;15.00;99.90;;;;;;4907071;28;20198;-80
2023/06/05 06:54:46;;;;;;;3.65;2.17;;;15.30;99.90;;;;;;4907380;28;20463;-79
2023/06/05 06:57:12;;;;;;;4.57;2.90;;;15.20;99.90;;;;;;4932324;28;20127;-76
2023/06/05 06:59:40;;;;;;;4.05;2.45;;;15.30;99.90;;;;;;4924662;28;20131;-75
2023/06/05 07:02:13;;;;;;;3.38;2.33;;;15.70;99.90;;;;;;4999817;28;20078;-74
2023/06/05 07:04:43;;;;;;;7.38;2.10;;;16.10;99.90;;;;;;4944439;28;20043;-75
2023/06/05 07:07:11;;;;;;;3.60;2.40;;;16.20;99.90;;;;;;4925472;28;20040;-74
2023/06/05 07:09:37;;;;;;;3.22;2.22;;;16.50;99.90;;;;;;4928774;28;20040;-73
2023/06/05 07:12:05;;;;;;;3.38;2.33;;;16.50;99.90;;;;;;4929526;28;20384;-74
2023/06/05 07:14:35;;;;;;;2.72;2.20;;;16.80;99.90;;;;;;4945667;28;20099;-78
2023/06/05 07:17:01;;;;;;;2.80;2.10;;;17.00;99.90;;;;;;4909598;28;20591;-75
2023/06/05 07:19:31;;;;;;;2.95;2.20;;;17.20;99.90;;;;;;4927498;29;20143;-76
2023/06/05 07:21:59;;;;;;;2.67;2.05;;;16.90;99.90;;;;;;4909047;29;20051;-78
2023/06/05 07:24:25;;;;;;;3.55;2.45;;;17.00;99.90;;;;;;4914127;28;20094;-73
2023/06/05 07:26:56;;;;;;;5.05;2.88;;;16.70;99.90;;;;;;4913672;28;20051;-76
2023/06/05 07:29:25;;;;;;;4.38;2.40;;;17.00;99.90;;;;;;4926195;28;20036;-75
2023/06/05 07:31:51;;;;;;;3.00;2.38;;;16.80;99.90;;;;;;4924241;29;20044;-75
2023/06/05 07:34:18;;;;;;;2.83;2.35;;;16.80;99.90;;;;;;4920347;29;20047;-72
2023/06/05 07:36:46;;;;;;;2.85;2.30;;;16.80;99.90;;;;;;4911677;28;20051;-72
2023/06/05 07:39:12;;;;;;;2.70;2.50;;;16.90;99.90;;;;;;4941883;28;20054;-73
2023/06/05 07:41:39;;;;;;;3.83;2.30;;;16.60;99.90;;;;;;4923802;28;20048;-70
2023/06/05 07:44:10;;;;;;;3.50;2.50;;;16.80;99.90;;;;;;4904535;28;20040;-72
2023/06/05 07:46:37;;;;;;;3.03;2.40;;;16.60;99.90;;;;;;4925089;28;20071;-73
2023/06/05 07:49:03;;;;;;;2.67;2.42;;;16.80;99.90;;;;;;4969998;28;20583;-73
2023/06/05 07:51:29;;;;;;;2.70;2.50;;;16.90;99.90;;;;;;4915479;28;20075;-72
2023/06/05 07:53:54;;;;;;;3.15;2.38;;;16.60;99.90;;;;;;4915440;28;20089;-76
2023/06/05 07:56:23;;;;;;;2.55;2.10;;;16.70;99.90;;;;;;4909009;28;20517;-74
2023/06/05 07:58:49;;;;;;;3.55;2.85;;;16.70;99.90;;;;;;4904466;28;20047;-74
2023/06/05 08:01:15;;;;;;;5.90;2.70;;;16.70;99.90;;;;;;4931382;28;20071;-73
2023/06/05 08:03:43;;;;;;;3.60;2.60;;;16.50;99.90;;;;;;4921400;28;20044;-75
2023/06/05 08:06:10;;;;;;;3.97;2.58;;;16.70;99.90;;;;;;4985137;28;20534;-73
2023/06/05 08:08:35;;;;;;;3.53;2.42;;;17.20;99.90;;;;;;4937374;28;20095;-73
2023/06/05 08:11:01;;;;;;;3.13;2.78;;;17.40;99.90;;;;;;4945778;28;20031;-72
2023/06/05 08:13:27;;;;;;;4.95;2.70;;;17.20;99.90;;;;;;4935927;28;20055;-70
2023/06/05 08:15:52;;;;;;;4.75;2.53;;;17.00;99.90;;;;;;4946339;28;20508;-71
2023/06/05 08:18:18;;;;;;;3.00;2.45;;;17.30;99.90;;;;;;4934841;28;20043;-74
2023/06/05 08:20:44;;;;;;;3.25;2.95;;;17.20;99.90;;;;;;4915351;28;20218;-73
2023/06/05 08:23:10;;;;;;;2.90;2.60;;;17.40;99.90;;;;;;4952106;28;20038;-73
2023/06/05 08:25:35;;;;;;;3.35;2.70;;;17.50;99.90;;;;;;4917162;29;20040;-72
2023/06/05 08:28:01;;;;;;;5.53;3.38;;;17.80;99.90;;;;;;4913350;28;20048;-77
2023/06/05 08:30:27;;;;;;;3.72;2.63;;;17.80;99.90;;;;;;4922033;28;20075;-73
2023/06/05 08:32:52;;;;;;;2.47;2.28;;;18.00;99.90;;;;;;4911048;29;20047;-75
2023/06/05 08:35:18;;;;;;;3.20;2.90;;;18.30;99.90;;;;;;4962086;28;20029;-72
2023/06/05 08:37:44;;;;;;;2.97;2.70;;;18.10;99.90;;;;;;4921260;29;20131;-76
2023/06/05 08:40:12;;;;;;;4.03;2.80;;;18.30;99.90;;;;;;4927577;28;20059;-74
2023/06/05 08:42:38;;;;;;;3.67;3.13;;;17.90;99.90;;;;;;4924674;28;20040;-73
2023/06/05 08:45:08;;;;;;;4.78;3.13;;;18.10;99.90;;;;;;4928486;28;20438;-72
2023/06/05 08:47:38;;;;;;;4.10;3.10;;;18.10;99.90;;;;;;4914509;28;20048;-75
2023/06/05 08:50:06;;;;;;;4.00;2.97;;;18.30;99.90;;;;;;4951983;28;20042;-73
2023/06/05 08:52:41;;;;;;;3.67;3.10;;;18.20;99.90;;;;;;4931727;28;20044;-75
2023/06/05 08:55:08;;;;;;;3.75;2.80;;;18.20;99.90;;;;;;4927117;28;20052;-74
2023/06/05 08:57:40;;;;;;;3.90;3.05;;;18.10;99.90;;;;;;4925614;29;20058;-75
2023/06/05 09:00:14;;;;;;;4.13;2.95;;;18.60;99.90;;;;;;4928223;28;20034;-73
2023/06/05 09:02:46;;;;;;;3.53;3.03;;;18.90;99.90;;;;;;4913324;28;20044;-71
2023/06/05 09:05:13;;;;;;;4.65;3.10;;;18.70;99.90;;;;;;4904679;28;20044;-76
2023/06/05 09:07:38;;;;;;;4.05;2.95;;;18.70;99.90;;;;;;4920336;28;20040;-73
2023/06/05 09:10:06;;;;;;;3.85;2.72;;;19.00;99.90;;;;;;4911597;29;20058;-73
2023/06/05 09:12:51;;;;;;;3.42;2.70;;;19.30;99.90;;;;;;4903789;28;20071;-75
2023/06/05 09:15:49;;;;;;;3.95;3.10;;;19.10;99.90;;;;;;4900987;29;20059;-77
2023/06/05 09:18:15;;;;;;;3.03;2.72;;;19.80;99.90;;;;;;4931111;28;20500;-73
2023/06/05 09:20:43;;;;;;;3.70;2.78;;;19.70;99.90;;;;;;4890289;28;20050;-77
2023/06/05 09:23:26;;;;;;;3.03;2.50;;;19.50;99.90;;;;;;4927532;28;22254;-74
2023/06/05 09:25:54;;;;;;;3.00;2.70;;;19.60;99.90;;;;;;4938901;28;20044;-74
2023/06/05 09:28:20;;;;;;;3.15;2.40;;;20.00;99.90;;;;;;4928197;29;20035;-77
2023/06/05 09:31:01;;;;;;;3.60;2.67;;;20.20;99.90;;;;;;4959977;28;20054;-74
2023/06/05 09:33:31;;;;;;;3.05;2.47;;;20.60;99.90;;;;;;4927105;28;20059;-76
2023/06/05 09:36:11;;;;;;;4.22;2.50;;;20.80;99.90;;;;;;4940909;28;20101;-76
2023/06/05 09:38:39;;;;;;;3.83;2.25;;;21.00;99.90;;;;;;4902720;28;20051;-74
2023/06/05 09:41:09;;;;;;;3.60;2.38;;;20.90;99.90;;;;;;4900369;28;20515;-74
2023/06/05 09:43:36;;;;;;;3.05;2.60;;;21.20;99.90;;;;;;4918351;28;20516;-77
2023/06/05 09:46:11;;;;;;;7.10;2.55;;;21.00;99.90;;;;;;4917084;28;20604;-77
2023/06/05 09:48:38;;;;;;;3.03;2.30;;;20.90;99.90;;;;;;4918409;28;20043;-77
2023/06/05 09:51:14;;;;;;;2.40;2.20;;;20.40;99.90;;;;;;4928377;28;20058;-74
2023/06/05 09:53:45;;;;;;;2.92;2.30;;;20.10;99.90;;;;;;4924079;28;20032;-74
2023/06/05 09:56:16;;;;;;;3.10;2.80;;;20.50;99.90;;;;;;4908167;28;20059;-75
2023/06/05 09:58:49;;;;;;;2.67;2.40;;;20.70;99.90;;;;;;4921918;28;20060;-76
2023/06/05 10:01:24;;;;;;;2.88;2.10;;;20.90;99.90;;;;;;4925051;28;20397;-74
2023/06/05 10:03:58;;;;;;;2.42;2.08;;;21.40;99.90;;;;;;4886851;28;20058;-75
2023/06/05 10:06:28;;;;;;;3.20;2.38;;;20.90;99.90;;;;;;4919222;28;20178;-76
2023/06/05 10:08:55;;;;;;;2.55;2.22;;;21.50;99.90;;;;;;4922524;28;20055;-78
2023/06/05 10:11:23;;;;;;;2.95;2.38;;;21.30;99.90;;;;;;4911087;29;20032;-80
2023/06/05 10:13:49;;;;;;;4.03;2.40;;;21.40;99.90;;;;;;4923182;28;20043;-80
2023/06/05 10:16:17;;;;;;;2.15;1.95;;;21.70;99.90;;;;;;4927788;28;20126;-74
2023/06/05 10:18:46;;;;;;;2.88;2.50;;;21.40;99.90;;;;;;4935585;29;20047;-72
2023/06/05 10:21:16;;;;;;;2.83;2.28;;;22.20;99.90;;;;;;4914815;29;20039;-73
2023/06/05 10:23:47;;;;;;;2.33;2.05;;;22.20;99.90;;;;;;4915063;29;20048;-73
2023/06/05 10:26:30;;;;;;;2.80;2.30;;;22.40;99.90;;;;;;4925928;28;21099;-73
2023/06/05 10:29:16;;;;;;;2.60;2.00;;;21.70;76.40;;;;;;4926164;28;20035;-74
2023/06/05 10:32:18;;;;;;;2.72;1.85;;;21.90;40.60;;;;;;4974234;28;20042;-75
2023/06/05 10:35:06;;;;;;;2.40;2.03;;;21.40;36.40;;;;;;4943272;28;20401;-71
2023/06/05 10:38:01;;;;;;;2.28;2.08;;;21.70;68.30;;;;;;4914750;28;20047;-73
2023/06/05 10:40:28;;;;;;;3.33;2.30;;;22.00;78.20;;;;;;4935792;28;20043;-74
2023/06/05 10:42:53;;;;;;;2.13;1.92;;;22.30;81.90;;;;;;4915446;29;20123;-72
2023/06/05 10:45:32;;;;;;;2.17;1.90;;;22.10;82.20;;;;;;4899195;28;20067;-75
2023/06/05 10:47:58;;;;;;;2.30;2.08;;;21.70;29.10;;;;;;4914696;28;20036;-73
2023/06/05 10:50:25;;;;;;;2.50;2.05;;;22.60;50.50;;;;;;4928344;28;20107;-73
2023/06/05 10:52:52;;;;;;;3.92;2.20;;;22.50;42.20;;;;;;4937708;28;20054;-71
2023/06/05 10:55:20;;;;;;;2.33;1.90;;;21.80;35.10;;;;;;4928788;28;20044;-74
2023/06/05 10:58:00;;;;;;;2.22;2.00;;;22.10;33.20;;;;;;4923005;28;20982;-76
2023/06/05 11:00:30;;;;;;;2.50;2.30;;;22.50;4.60;;;;;;4930339;28;20491;-75
2023/06/05 11:02:56;;;;;;;2.70;2.25;;;22.00;17.10;;;;;;4930571;28;20052;-76
2023/06/05 11:05:22;;;;;;;3.13;2.58;;;22.30;25.60;;;;;;4906772;28;20050;-77
2023/06/05 11:08:07;;;;;;;3.33;2.10;;;22.10;24.70;;;;;;4911474;29;20126;-78
2023/06/05 11:10:33;;;;;;;3.75;2.28;;;22.40;20.90;;;;;;4925026;28;20048;-79
2023/06/05 11:13:00;;;;;;;3.42;2.20;;;22.30;16.40;;;;;;4913920;28;20629;-76
2023/06/05 11:15:28;;;;;;;2.20;1.83;;;22.30;11.00;;;;;;4928576;28;20044;-77
2023/06/05 11:17:54;;;;;;;2.13;1.90;;;22.70;6.00;;;;;;4906249;29;20048;-77
2023/06/05 11:20:23;;;;;;;3.15;2.30;;;22.80;2.60;;;;;;4909458;28;20043;-78
2023/06/05 11:22:52;;;;;;;3.15;2.17;;;22.80;4.90;;;;;;4939492;28;20361;-79
2023/06/05 11:25:18;;;;;;;2.97;2.10;;;22.90;1.00;;;;;;4951477;28;20054;-78
2023/06/05 11:27:45;;;;;;;2.60;2.40;;;22.80;1.00;;;;;;4928196;29;20044;-75
2023/06/05 11:30:16;;;;;;;4.00;2.10;;;22.70;1.00;;;;;;4912326;28;20123;-74
2023/06/05 11:32:43;;;;;;;3.75;2.17;;;23.20;1.00;;;;;;4963104;28;20123;-75
2023/06/05 11:35:09;;;;;;;2.55;2.35;;;22.90;1.00;;;;;;4933644;29;20085;-78
2023/06/05 11:37:37;;;;;;;2.50;2.28;;;22.70;1.00;;;;;;4915947;28;20036;-75
2023/06/05 11:40:09;;;;;;;2.63;2.42;;;22.40;1.00;;;;;;4909489;28;20039;-75
2023/06/05 11:42:39;;;;;;;2.67;2.42;;;23.10;1.00;;;;;;4889893;29;20098;-75
2023/06/05 11:45:14;;;;;;;2.17;1.98;;;22.40;1.00;;;;;;4928486;29;20089;-75
2023/06/05 11:47:40;;;;;;;2.40;2.00;;;22.00;1.00;;;;;;4910112;28;20032;-72
2023/06/05 11:50:11;;;;;;;2.95;2.53;;;22.00;1.00;;;;;;4921853;29;20506;-73
2023/06/05 11:52:37;;;;;;;3.90;2.03;;;22.00;1.00;;;;;;4919711;28;20082;-73
2023/06/05 11:55:16;;;;;;;3.85;2.38;;;22.20;1.00;;;;;;4922803;28;20054;-75
2023/06/05 11:57:49;;;;;;;2.72;2.30;;;22.70;1.00;;;;;;4924830;28;20051;-76
2023/06/05 12:00:22;;;;;;;2.87;2.67;;;22.60;1.00;;;;;;4909254;28;20135;-74
2023/06/05 12:02:48;;;;;;;3.20;2.55;;;22.80;1.00;;;;;;4924299;28;20031;-73
2023/06/05 12:05:14;;;;;;;2.67;2.47;;;22.60;1.00;;;;;;4912343;28;20040;-75
2023/06/05 12:07:41;;;;;;;3.92;2.63;;;22.20;1.00;;;;;;4928002;29;20047;-74
2023/06/05 12:10:08;;;;;;;2.78;2.45;;;22.80;1.00;;;;;;4926328;29;20036;-77
2023/06/05 12:12:35;;;;;;;3.83;2.40;;;22.60;1.00;;;;;;4924483;28;20044;-76
2023/06/05 12:15:21;;;;;;;4.28;2.33;;;22.70;1.00;;;;;;4926662;28;20048;-75
2023/06/05 12:17:51;;;;;;;3.08;2.40;;;22.40;1.00;;;;;;4917793;28;20039;-75
2023/06/05 12:20:17;;;;;;;2.85;2.30;;;22.60;1.00;;;;;;4913820;28;20047;-75
2023/06/05 12:22:44;;;;;;;4.60;2.47;;;23.00;1.00;;;;;;4912758;28;20044;-75
2023/06/05 12:25:20;;;;;;;3.75;2.30;;;22.70;1.00;;;;;;4927000;28;20047;-75
2023/06/05 12:27:47;;;;;;;2.47;2.28;;;23.10;1.00;;;;;;4898498;29;20040;-73
2023/06/05 12:30:14;;;;;;;2.85;2.15;;;22.70;1.00;;;;;;4923586;29;20040;-76
2023/06/05 12:32:40;;;;;;;2.70;2.22;;;23.00;1.00;;;;;;4910891;28;20171;-76
2023/06/05 12:35:17;;;;;;;2.40;1.83;;;22.70;1.00;;;;;;4909086;28;20122;-75
2023/06/05 12:37:45;;;;;;;2.60;2.30;;;23.10;1.00;;;;;;4890762;29;20067;-77
2023/06/05 12:40:11;;;;;;;2.90;2.00;;;23.00;1.00;;;;;;4928294;29;20115;-76
2023/06/05 12:42:39;;;;;;;2.55;2.30;;;22.80;1.00;;;;;;4927844;29;20066;-77
2023/06/05 12:45:06;;;;;;;3.25;2.95;;;23.20;1.00;;;;;;4926761;28;20836;-75
2023/06/05 12:47:33;;;;;;;3.60;2.60;;;23.00;1.00;;;;;;4920042;28;20043;-76
2023/06/05 12:49:59;;;;;;;2.50;2.30;;;22.80;1.00;;;;;;4894924;28;20085;-78
2023/06/05 12:52:25;;;;;;;2.30;2.10;;;22.50;1.00;;;;;;4921398;28;20040;-77
2023/06/05 12:54:52;;;;;;;3.70;2.33;;;22.80;1.00;;;;;;4920142;28;20858;-76